createdAt,value
2019-03-20T00:04:49.958Z,3.70
2019-03-20T00:09:55.077Z,3.83
2019-03-20T00:14:59.916Z,5.77
2019-03-20T00:20:05.991Z,3.20
2019-03-20T00:25:11.346Z,4.67
2019-03-20T00:30:16.743Z,5.07
2019-03-20T00:35:21.731Z,5.00
2019-03-20T00:40:26.717Z,4.93
2019-03-20T00:45:31.860Z,3.50
2019-03-20T00:50:36.867Z,4.17
2019-03-20T00:55:42.038Z,4.70
2019-03-20T01:00:46.988Z,4.70
2019-03-20T01:05:52.170Z,4.07
2019-03-20T01:10:57.359Z,3.30
2019-03-20T01:16:02.191Z,5.43
2019-03-20T01:21:07.350Z,4.30
2019-03-20T01:26:12.275Z,3.17
2019-03-20T01:31:17.339Z,4.30
2019-03-20T01:36:22.477Z,6.17
2019-03-20T01:41:37.414Z,4.47
2019-03-20T01:46:34.242Z,5.40
2019-03-20T01:51:39.596Z,4.93
2019-03-20T01:56:45.068Z,4.53
2019-03-20T02:01:50.131Z,3.93
2019-03-20T02:06:55.217Z,6.27
2019-03-20T02:12:01.030Z,2.60
2019-03-20T02:17:06.173Z,4.60
2019-03-20T02:22:11.312Z,4.30
2019-03-20T02:27:16.218Z,3.20
2019-03-20T02:32:21.363Z,2.73
2019-03-20T02:37:29.435Z,3.27
2019-03-20T02:42:34.774Z,4.90
2019-03-20T02:47:40.015Z,3.27
2019-03-20T02:52:45.146Z,3.63
2019-03-20T02:57:50.092Z,2.27
2019-03-20T03:02:55.302Z,4.43
2019-03-20T03:08:00.522Z,2.70
2019-03-20T03:13:05.755Z,3.13
2019-03-20T03:18:10.849Z,3.77
2019-03-20T03:23:16.564Z,7.20
2019-03-20T03:28:21.765Z,3.20
2019-03-20T03:33:26.646Z,4.70
2019-03-20T03:38:31.521Z,3.93
2019-03-20T03:43:36.692Z,3.50
2019-03-20T03:48:41.921Z,2.00
2019-03-20T03:53:46.757Z,4.27
2019-03-20T03:58:51.752Z,5.10
2019-03-20T04:03:56.677Z,2.03
2019-03-20T04:09:02.147Z,2.40
2019-03-20T04:14:07.037Z,3.90
2019-03-20T04:19:11.910Z,2.87
2019-03-20T04:24:16.800Z,3.67
2019-03-20T04:29:21.924Z,2.90
2019-03-20T04:34:26.867Z,4.17
2019-03-20T04:39:32.535Z,4.50
2019-03-20T04:44:37.673Z,3.23
2019-03-20T04:49:42.621Z,3.87
2019-03-20T04:54:48.162Z,4.90
2019-03-20T04:59:53.114Z,2.43
2019-03-20T05:04:58.531Z,3.33
2019-03-20T05:10:03.724Z,4.00
2019-03-20T05:15:09.446Z,4.30
2019-03-20T05:20:14.357Z,2.33
2019-03-20T05:25:19.665Z,4.27
2019-03-20T05:30:25.090Z,4.67
2019-03-20T05:35:29.957Z,5.87
2019-03-20T05:40:34.948Z,4.63
2019-03-20T05:45:40.830Z,4.80
2019-03-20T05:50:46.166Z,2.60
2019-03-20T05:55:51.135Z,3.27
2019-03-20T06:00:56.393Z,3.77
2019-03-20T06:06:01.610Z,3.10
2019-03-20T06:11:06.832Z,4.60
2019-03-20T06:16:11.810Z,2.00
2019-03-20T06:21:17.490Z,2.40
2019-03-20T06:26:22.742Z,3.73
2019-03-20T06:31:27.998Z,1.80
2019-03-20T06:36:33.214Z,3.03
2019-03-20T06:41:38.348Z,2.63
2019-03-20T06:46:43.488Z,1.90
2019-03-20T06:51:48.707Z,3.57
2019-03-20T06:56:53.701Z,2.43
2019-03-20T07:02:00.120Z,3.83
2019-03-20T07:07:15.460Z,3.77
2019-03-20T07:12:20.718Z,3.57
2019-03-20T07:17:26.189Z,3.50
2019-03-20T07:22:31.407Z,3.47
2019-03-20T07:27:36.552Z,1.80
2019-03-20T07:32:42.061Z,4.43
2019-03-20T07:37:55.644Z,3.53
2019-03-20T07:43:07.669Z,2.73
2019-03-20T07:48:05.189Z,3.70
2019-03-20T07:53:10.398Z,2.70
2019-03-20T07:58:15.918Z,3.03
2019-03-20T08:03:20.772Z,3.90
2019-03-20T08:08:26.084Z,2.93
2019-03-20T08:13:31.157Z,2.80
2019-03-20T08:18:36.265Z,4.50
2019-03-20T08:23:41.109Z,4.87
2019-03-20T08:28:45.973Z,3.70
2019-03-20T08:33:51.106Z,4.80
2019-03-20T08:38:56.568Z,5.47
2019-03-20T08:44:02.853Z,3.73
2019-03-20T08:49:08.031Z,4.37
2019-03-20T08:54:13.251Z,3.43
2019-03-20T08:59:18.285Z,3.13
2019-03-20T09:04:23.939Z,3.33
2019-03-20T09:09:28.822Z,2.37
2019-03-20T09:14:34.097Z,2.43
2019-03-20T09:19:39.421Z,1.93
2019-03-20T09:24:44.557Z,3.13
2019-03-20T09:29:49.728Z,3.93
2019-03-20T09:34:55.002Z,2.13
2019-03-20T09:40:02.297Z,3.90
2019-03-20T09:45:09.524Z,2.43
2019-03-20T09:50:16.199Z,3.37
2019-03-20T09:55:21.935Z,3.57
2019-03-20T10:00:27.289Z,4.07
2019-03-20T10:05:32.456Z,2.70
2019-03-20T10:10:37.662Z,2.47
2019-03-20T10:15:43.502Z,3.47
2019-03-20T10:20:48.675Z,3.50
2019-03-20T10:25:53.898Z,2.70
2019-03-20T10:30:58.805Z,2.50
2019-03-20T10:36:04.230Z,2.70
2019-03-20T10:41:10.569Z,1.63
2019-03-20T10:46:15.650Z,2.43
2019-03-20T10:51:20.907Z,2.43
2019-03-20T10:56:26.073Z,2.97
2019-03-20T11:01:41.846Z,1.77
2019-03-20T11:06:38.485Z,2.30
2019-03-20T11:11:43.753Z,3.17
2019-03-20T11:16:48.851Z,1.40
2019-03-20T11:21:53.858Z,2.00
2019-03-20T11:26:58.997Z,2.23
2019-03-20T11:32:04.722Z,2.57
2019-03-20T11:37:09.967Z,2.20
2019-03-20T11:42:15.159Z,2.77
2019-03-20T11:47:20.457Z,2.53
2019-03-20T11:53:05.941Z,2.27
2019-03-20T11:58:13.554Z,3.83
2019-03-20T12:03:18.489Z,3.73
2019-03-20T12:08:24.091Z,3.00
2019-03-20T12:13:29.027Z,1.77
2019-03-20T12:18:34.553Z,1.70
2019-03-20T12:23:39.914Z,2.33
2019-03-20T12:28:45.097Z,2.60
2019-03-20T12:33:50.496Z,2.30
2019-03-20T12:38:55.800Z,1.90
2019-03-20T12:44:01.582Z,3.10
2019-03-20T12:49:06.659Z,2.80
2019-03-20T12:54:11.966Z,2.80
2019-03-20T12:59:16.950Z,2.37
2019-03-20T13:04:21.994Z,1.83
2019-03-20T13:09:27.257Z,2.70
2019-03-20T13:14:32.404Z,11.03
2019-03-20T13:19:37.337Z,4.50
2019-03-20T13:24:42.974Z,5.97
2019-03-20T13:29:48.041Z,3.27
2019-03-20T13:34:53.195Z,3.00
2019-03-20T13:39:58.459Z,2.53
2019-03-20T13:45:04.115Z,4.60
2019-03-20T13:50:10.769Z,2.50
2019-03-20T13:55:16.349Z,2.63
2019-03-20T14:00:22.110Z,2.70
2019-03-20T14:05:27.080Z,3.57
2019-03-20T14:10:32.084Z,2.83
2019-03-20T14:15:37.351Z,3.20
2019-03-20T14:20:42.353Z,2.97
2019-03-20T14:25:47.614Z,2.90
2019-03-20T14:30:52.520Z,4.53
2019-03-20T14:35:57.677Z,3.30
2019-03-20T14:41:03.540Z,3.20
2019-03-20T14:46:08.903Z,3.50
2019-03-20T14:51:14.193Z,3.77
2019-03-20T14:56:19.297Z,1.60
2019-03-20T15:01:24.201Z,3.03
2019-03-20T15:06:30.064Z,2.73
2019-03-20T15:11:35.243Z,2.00
2019-03-20T15:16:40.180Z,3.80
2019-03-20T15:21:45.121Z,3.20
2019-03-20T15:26:50.543Z,3.17
2019-03-20T15:31:55.936Z,4.97
2019-03-20T15:37:01.156Z,3.17
2019-03-20T15:42:06.308Z,4.13
2019-03-20T15:47:11.335Z,3.37
2019-03-20T15:52:16.743Z,2.60
2019-03-20T15:57:22.557Z,2.70
2019-03-20T16:02:27.542Z,2.77
2019-03-20T16:07:32.355Z,3.87
2019-03-20T16:12:37.274Z,2.90
2019-03-20T16:17:42.202Z,2.53
2019-03-20T16:22:47.560Z,3.50
2019-03-20T16:27:52.910Z,2.07
2019-03-20T16:32:58.050Z,2.00
2019-03-20T16:38:03.204Z,2.67
2019-03-20T16:43:08.360Z,2.83
2019-03-20T16:48:13.401Z,2.17
2019-03-20T16:53:18.245Z,2.90
2019-03-20T16:58:23.490Z,4.07
2019-03-20T17:03:28.380Z,2.90
2019-03-20T17:08:33.369Z,2.97
2019-03-20T17:13:38.530Z,2.63
2019-03-20T17:18:43.633Z,4.03
2019-03-20T17:23:48.581Z,4.20
2019-03-20T17:28:53.826Z,2.67
2019-03-20T17:33:58.695Z,3.70
2019-03-20T17:39:05.437Z,2.73
2019-03-20T17:44:10.781Z,3.87
2019-03-20T17:49:16.190Z,2.73
2019-03-20T17:54:21.143Z,2.60
2019-03-20T17:59:26.434Z,3.63
2019-03-20T18:04:31.368Z,3.43
2019-03-20T18:09:36.329Z,4.20
2019-03-20T18:14:41.247Z,4.87
2019-03-20T18:19:46.216Z,11.07
2019-03-20T18:24:51.395Z,14.10
2019-03-20T18:29:56.613Z,27.93
2019-03-20T18:35:01.929Z,33.70
2019-03-20T18:40:07.393Z,15.10
2019-03-20T18:45:13.060Z,10.37
2019-03-20T18:50:18.534Z,6.20
2019-03-20T18:55:23.771Z,5.77
2019-03-20T19:00:29.106Z,5.20
2019-03-20T19:05:52.958Z,4.47
2019-03-20T19:10:58.182Z,9.50
2019-03-20T19:16:03.531Z,8.37
2019-03-20T19:21:08.452Z,10.23
2019-03-20T19:26:13.670Z,8.13
2019-03-20T19:31:18.564Z,6.67
2019-03-20T19:36:23.487Z,7.77
2019-03-20T19:41:28.624Z,10.40
2019-03-20T19:46:33.731Z,10.10
2019-03-20T19:51:38.885Z,12.10
2019-03-20T19:56:43.797Z,11.80
2019-03-20T20:01:48.832Z,11.27
2019-03-20T20:06:53.986Z,9.13
2019-03-20T20:11:59.038Z,8.70
2019-03-20T20:17:04.061Z,7.77
2019-03-20T20:22:08.970Z,6.90
2019-03-20T20:27:14.148Z,8.03
2019-03-20T20:32:19.261Z,7.67
2019-03-20T20:37:24.173Z,10.83
2019-03-20T20:42:28.994Z,8.17
2019-03-20T20:47:34.321Z,5.93
2019-03-20T20:52:39.822Z,4.70
2019-03-20T20:57:45.117Z,4.83
2019-03-20T21:02:50.552Z,5.80
2019-03-20T21:07:55.536Z,5.40
2019-03-20T21:13:00.497Z,5.70
2019-03-20T21:18:55.871Z,4.43
2019-03-20T21:24:29.919Z,5.53
2019-03-20T21:29:55.264Z,4.80
2019-03-20T21:36:08.974Z,6.47
2019-03-20T21:41:42.060Z,4.10
2019-03-20T21:47:22.994Z,5.53
2019-03-20T21:52:28.547Z,6.37
2019-03-20T21:57:46.719Z,6.53
2019-03-20T22:02:52.210Z,6.70
2019-03-20T22:07:58.324Z,4.60
2019-03-20T22:13:18.866Z,6.00
2019-03-20T22:19:11.646Z,6.47
2019-03-20T22:24:54.969Z,5.73
2019-03-20T22:30:00.481Z,4.70
2019-03-20T22:35:45.737Z,4.63
2019-03-20T22:41:49.402Z,5.90
2019-03-20T22:47:30.085Z,4.43
2019-03-20T22:53:13.743Z,5.30
2019-03-20T22:58:45.166Z,3.83
2019-03-20T23:03:55.516Z,4.30
2019-03-20T23:09:01.206Z,5.40
2019-03-20T23:14:07.454Z,4.60
2019-03-20T23:19:12.945Z,3.97
2019-03-20T23:24:18.639Z,5.60
2019-03-20T23:29:24.560Z,5.43
2019-03-20T23:34:30.300Z,7.80
2019-03-20T23:39:35.722Z,3.60
2019-03-20T23:44:41.629Z,5.20
2019-03-20T23:49:47.230Z,6.17
2019-03-20T23:54:54.848Z,5.33
